Terminal Aerodrome Forecast
Issued by NWS St Louis, MO

Home | Current Version | Previous Version | Text Only | Print | Product List | Glossary On
Versions: 1 2 3 4 5 6 7 8 9 10 11 12 13 14 15 16 17 18 19 20 21 22 23 24 25 26 27 28 29 30 31 32
608
FTUS43 KLSX 151457 AAA
TAFSTL
TAF AMD
KSTL 151457Z 1515/1618 06006KT 4SM -SHRA BR OVC006
     FM160000 08004KT P6SM OVC003
     FM160600 12005KT P6SM OVC003=

USA.gov is the U.S. government's official web portal to all federal, state and local government web resources and services.